createdAt,value
2019-02-02T00:02:30.008Z,51.40
2019-02-02T00:05:22.301Z,51.60
2019-02-02T00:08:15.790Z,51.40
2019-02-02T00:11:07.995Z,51.40
2019-02-02T00:14:01.325Z,51.50
2019-02-02T00:16:51.643Z,51.50
2019-02-02T00:19:44.817Z,51.40
2019-02-02T00:22:39.170Z,51.60
2019-02-02T00:25:31.344Z,51.50
2019-02-02T00:28:23.448Z,51.50
2019-02-02T00:31:18.038Z,51.60
2019-02-02T00:34:09.896Z,51.60
2019-02-02T00:37:01.813Z,51.60
2019-02-02T00:39:54.156Z,51.70
2019-02-02T00:42:46.139Z,51.70
2019-02-02T00:45:38.377Z,51.70
2019-02-02T00:48:30.343Z,51.70
2019-02-02T00:51:22.371Z,51.70
2019-02-02T00:54:16.733Z,51.70
2019-02-02T00:57:07.802Z,51.70
2019-02-02T01:00:00.407Z,51.70
2019-02-02T01:02:52.562Z,51.70
2019-02-02T01:05:44.834Z,51.80
2019-02-02T01:08:37.971Z,51.80
2019-02-02T01:11:29.967Z,51.80
2019-02-02T01:14:21.897Z,51.70
2019-02-02T01:17:15.237Z,51.70
2019-02-02T01:20:07.735Z,51.80
2019-02-02T01:22:59.559Z,51.70
2019-02-02T01:25:51.736Z,51.70
2019-02-02T01:28:43.529Z,51.60
2019-02-02T01:31:35.733Z,51.50
2019-02-02T01:34:27.999Z,51.70
2019-02-02T01:37:19.925Z,51.50
2019-02-02T01:40:13.096Z,51.40
2019-02-02T01:43:05.062Z,51.40
2019-02-02T01:45:57.503Z,51.40
2019-02-02T01:48:49.790Z,51.50
2019-02-02T01:51:42.129Z,51.40
2019-02-02T01:54:38.324Z,51.40
2019-02-02T01:57:28.684Z,51.60
2019-02-02T02:00:22.048Z,51.40
2019-02-02T02:03:13.946Z,51.50
2019-02-02T02:06:05.835Z,51.50
2019-02-02T02:08:57.930Z,51.60
2019-02-02T02:11:49.966Z,51.50
2019-02-02T02:14:43.449Z,51.70
2019-02-02T02:17:35.619Z,51.80
2019-02-02T02:20:28.341Z,51.70
2019-02-02T02:23:20.375Z,52.40
2019-02-02T02:26:12.271Z,52.80
2019-02-02T02:29:04.267Z,53.10
2019-02-02T02:31:57.140Z,53.20
2019-02-02T02:34:50.907Z,53.20
2019-02-02T02:37:42.637Z,53.10
2019-02-02T02:40:35.288Z,55.00
2019-02-02T02:43:29.675Z,54.10
2019-02-02T02:46:21.766Z,54.00
2019-02-02T02:49:14.083Z,54.00
2019-02-02T02:52:07.917Z,53.90
2019-02-02T02:54:59.697Z,54.00
2019-02-02T02:57:53.124Z,54.10
2019-02-02T03:00:45.230Z,54.20
2019-02-02T03:03:37.936Z,54.20
2019-02-02T03:06:29.859Z,54.20
2019-02-02T03:09:22.153Z,54.10
2019-02-02T03:12:13.930Z,54.30
2019-02-02T03:15:06.603Z,54.10
2019-02-02T03:17:58.469Z,53.70
2019-02-02T03:20:50.595Z,53.70
2019-02-02T03:23:42.937Z,53.50
2019-02-02T03:26:39.284Z,53.50
2019-02-02T03:29:31.425Z,53.70
2019-02-02T03:32:28.588Z,53.60
2019-02-02T03:35:22.163Z,53.00
2019-02-02T03:38:14.037Z,53.20
2019-02-02T03:41:06.107Z,53.00
2019-02-02T03:43:58.008Z,52.80
2019-02-02T03:46:49.910Z,52.80
2019-02-02T03:49:41.831Z,52.60
2019-02-02T03:52:33.764Z,52.60
2019-02-02T03:55:25.734Z,52.40
2019-02-02T03:58:18.155Z,52.30
2019-02-02T04:01:10.072Z,52.30
2019-02-02T04:04:05.508Z,52.10
2019-02-02T04:06:57.570Z,52.10
2019-02-02T04:09:49.825Z,51.90
2019-02-02T04:12:41.615Z,51.80
2019-02-02T04:15:56.433Z,51.70
2019-02-02T04:18:57.759Z,51.70
2019-02-02T04:21:52.430Z,51.70
2019-02-02T04:24:45.167Z,51.40
2019-02-02T04:27:37.703Z,51.30
2019-02-02T04:30:29.931Z,51.20
2019-02-02T04:33:22.316Z,51.20
2019-02-02T04:36:14.598Z,51.20
2019-02-02T04:39:05.620Z,51.10
2019-02-02T04:41:57.555Z,51.10
2019-02-02T04:44:49.570Z,50.20
2019-02-02T04:47:41.913Z,50.10
2019-02-02T04:50:36.067Z,50.10
2019-02-02T04:53:28.419Z,50.90
2019-02-02T04:56:21.165Z,50.70
2019-02-02T04:59:13.775Z,50.50
2019-02-02T05:02:09.001Z,50.20
2019-02-02T05:05:01.039Z,50.10
2019-02-02T05:07:53.325Z,49.80
2019-02-02T05:10:45.574Z,49.50
2019-02-02T05:13:37.700Z,49.10
2019-02-02T05:16:30.209Z,49.00
2019-02-02T05:19:24.498Z,49.00
2019-02-02T05:22:19.592Z,49.10
2019-02-02T05:25:16.629Z,49.10
2019-02-02T05:28:14.014Z,49.40
2019-02-02T05:31:08.186Z,49.20
2019-02-02T05:34:00.822Z,49.50
2019-02-02T05:36:56.666Z,49.40
2019-02-02T05:39:54.991Z,49.60
2019-02-02T05:42:53.865Z,49.70
2019-02-02T05:45:48.488Z,49.60
2019-02-02T05:48:58.532Z,49.60
2019-02-02T05:51:52.550Z,49.50
2019-02-02T05:54:47.307Z,49.50
2019-02-02T06:01:08.127Z,49.50
2019-02-02T06:03:52.495Z,49.60
2019-02-02T06:10:12.189Z,49.70
2019-02-02T06:13:11.910Z,49.60
2019-02-02T06:19:46.116Z,49.60
2019-02-02T06:22:51.901Z,49.50
2019-02-02T06:26:34.776Z,49.60
2019-02-02T06:30:03.796Z,49.40
2019-02-02T06:32:19.312Z,49.60
2019-02-02T06:35:40.492Z,49.50
2019-02-02T06:38:53.945Z,49.40
2019-02-02T06:45:40.791Z,49.40
2019-02-02T06:52:29.377Z,49.30
2019-02-02T06:55:27.405Z,49.10
2019-02-02T06:58:51.197Z,49.20
2019-02-02T07:04:46.043Z,49.20
2019-02-02T07:14:01.453Z,49.10
2019-02-02T07:16:57.617Z,49.10
2019-02-02T07:20:09.975Z,49.00
2019-02-02T07:23:07.673Z,49.00
2019-02-02T07:26:00.570Z,49.10
2019-02-02T07:28:52.989Z,49.30
2019-02-02T07:31:46.970Z,49.10
2019-02-02T07:34:40.879Z,49.00
2019-02-02T07:37:37.418Z,49.10
2019-02-02T07:40:39.607Z,49.10
2019-02-02T07:43:45.443Z,48.90
2019-02-02T07:46:42.036Z,48.80
2019-02-02T07:49:35.788Z,49.00
2019-02-02T07:52:31.307Z,48.90
2019-02-02T07:55:35.631Z,48.70
2019-02-02T07:58:26.913Z,48.60
2019-02-02T08:01:40.527Z,48.50
2019-02-02T08:04:23.177Z,48.30
2019-02-02T08:07:24.701Z,48.30
2019-02-02T08:10:35.251Z,47.90
2019-02-02T08:13:47.153Z,47.50
2019-02-02T08:17:10.604Z,47.60
2019-02-02T08:19:58.235Z,47.80
2019-02-02T08:22:51.023Z,47.70
2019-02-02T08:25:53.275Z,47.60
2019-02-02T08:28:45.778Z,47.80
2019-02-02T08:31:41.630Z,47.50
2019-02-02T08:34:34.511Z,47.40
2019-02-02T08:37:27.304Z,47.40
2019-02-02T08:40:20.068Z,47.40
2019-02-02T08:43:13.806Z,47.20
2019-02-02T08:46:06.553Z,46.80
2019-02-02T08:48:59.033Z,46.90
2019-02-02T08:51:51.626Z,46.90
2019-02-02T08:54:44.206Z,47.30
2019-02-02T08:57:36.941Z,46.50
2019-02-02T09:00:40.240Z,46.40
2019-02-02T09:03:35.318Z,46.50
2019-02-02T09:06:38.649Z,46.70
2019-02-02T09:09:22.334Z,46.70
2019-02-02T09:12:18.628Z,46.60
2019-02-02T09:15:13.759Z,46.70
2019-02-02T09:18:06.116Z,46.80
2019-02-02T09:21:01.474Z,46.90
2019-02-02T09:24:16.367Z,46.90
2019-02-02T09:27:03.371Z,46.90
2019-02-02T09:29:58.107Z,46.90
2019-02-02T09:32:54.512Z,46.80
2019-02-02T09:36:16.765Z,46.80
2019-02-02T09:39:05.968Z,46.60
2019-02-02T09:42:06.706Z,46.50
2019-02-02T09:45:00.814Z,46.50
2019-02-02T09:47:54.938Z,46.70
2019-02-02T09:50:48.023Z,46.60
2019-02-02T09:53:45.440Z,46.60
2019-02-02T09:56:39.089Z,46.50
2019-02-02T09:59:36.193Z,46.60
2019-02-02T10:02:29.325Z,46.80
2019-02-02T10:05:21.923Z,46.60
2019-02-02T10:08:15.241Z,46.60
2019-02-02T10:11:08.768Z,46.60
2019-02-02T10:14:02.582Z,46.60
2019-02-02T10:17:00.014Z,46.50
2019-02-02T10:19:51.962Z,46.50
2019-02-02T10:23:05.025Z,46.70
2019-02-02T10:26:12.394Z,46.90
2019-02-02T10:31:55.974Z,46.80
2019-02-02T10:34:48.463Z,46.80
2019-02-02T10:37:46.320Z,46.70
2019-02-02T10:40:40.359Z,46.60
2019-02-02T10:43:33.817Z,46.50
2019-02-02T10:46:26.601Z,46.90
2019-02-02T10:49:20.569Z,46.40
2019-02-02T10:52:12.478Z,46.00
2019-02-02T10:55:04.714Z,46.20
2019-02-02T10:58:00.292Z,46.20
2019-02-02T11:00:53.073Z,46.40
2019-02-02T11:03:45.166Z,46.60
2019-02-02T11:06:37.704Z,46.60
2019-02-02T11:09:31.727Z,46.60
2019-02-02T11:12:27.121Z,46.70
2019-02-02T11:15:27.191Z,46.80
2019-02-02T11:18:22.130Z,46.90
2019-02-02T11:21:14.517Z,46.90
2019-02-02T11:24:06.918Z,46.60
2019-02-02T11:26:59.192Z,46.70
2019-02-02T11:29:51.750Z,46.50
2019-02-02T11:32:44.359Z,46.60
2019-02-02T11:35:36.342Z,46.60
2019-02-02T11:38:39.335Z,46.80
2019-02-02T11:41:58.118Z,46.70
2019-02-02T11:48:41.550Z,46.70
2019-02-02T11:51:38.328Z,46.50
2019-02-02T11:54:31.072Z,46.30
2019-02-02T11:57:24.995Z,46.60
2019-02-02T12:00:19.172Z,46.70
2019-02-02T12:03:18.310Z,46.80
2019-02-02T12:06:23.591Z,46.90
2019-02-02T12:09:30.821Z,46.50
2019-02-02T12:13:02.533Z,46.40
2019-02-02T12:15:55.920Z,46.80
2019-02-02T12:19:05.328Z,46.10
2019-02-02T12:25:53.070Z,46.40
2019-02-02T12:28:56.901Z,46.20
2019-02-02T12:32:26.318Z,45.80
2019-02-02T12:35:52.575Z,46.20
2019-02-02T12:38:43.567Z,45.90
2019-02-02T12:41:42.291Z,46.40
2019-02-02T12:44:36.088Z,46.60
2019-02-02T12:48:00.674Z,46.10
2019-02-02T12:50:43.706Z,46.00
2019-02-02T12:54:28.443Z,45.90
2019-02-02T13:13:37.401Z,45.90
2019-02-02T13:16:33.517Z,46.00
2019-02-02T13:39:58.872Z,45.90
2019-02-02T13:42:53.436Z,45.90
2019-02-02T13:45:46.405Z,46.00
2019-02-02T13:48:52.977Z,46.10
2019-02-02T13:51:43.328Z,46.50
2019-02-02T13:54:40.080Z,46.80
2019-02-02T13:57:31.796Z,46.80
2019-02-02T14:00:26.875Z,47.00
2019-02-02T14:03:20.639Z,47.20
2019-02-02T14:06:13.676Z,47.10
2019-02-02T14:09:09.460Z,47.30
2019-02-02T14:12:04.911Z,47.20
2019-02-02T14:14:57.419Z,47.40
2019-02-02T14:17:50.036Z,47.40
2019-02-02T14:20:42.394Z,47.40
2019-02-02T14:23:35.558Z,47.50
2019-02-02T14:26:32.593Z,47.60
2019-02-02T14:29:25.031Z,47.60
2019-02-02T14:32:18.970Z,47.70
2019-02-02T14:35:19.951Z,47.70
2019-02-02T14:38:20.289Z,47.70
2019-02-02T14:41:11.617Z,47.80
2019-02-02T14:44:05.521Z,47.70
2019-02-02T14:47:24.317Z,47.80
2019-02-02T14:53:39.226Z,47.90
2019-02-02T14:56:49.378Z,47.90
2019-02-02T14:59:42.465Z,48.00
2019-02-02T15:02:43.989Z,47.90
2019-02-02T15:05:43.132Z,48.00
2019-02-02T15:08:30.845Z,48.00
2019-02-02T15:11:24.120Z,48.00
2019-02-02T15:14:34.545Z,48.10
2019-02-02T15:17:23.657Z,48.10
2019-02-02T15:20:26.883Z,48.10
2019-02-02T15:23:23.424Z,48.00
2019-02-02T15:26:15.753Z,48.20
2019-02-02T15:29:09.181Z,48.10
2019-02-02T15:32:03.619Z,48.20
2019-02-02T15:34:56.384Z,48.10
2019-02-02T15:37:50.479Z,48.20
2019-02-02T15:40:42.280Z,48.10
2019-02-02T15:43:34.619Z,48.20
2019-02-02T15:46:27.531Z,48.20
2019-02-02T15:49:20.781Z,48.20
2019-02-02T15:52:13.453Z,48.30
2019-02-02T15:55:06.902Z,48.30
2019-02-02T15:58:07.632Z,48.40
2019-02-02T16:01:03.419Z,48.40
2019-02-02T16:04:03.962Z,48.40
2019-02-02T16:06:58.560Z,48.50
2019-02-02T16:09:52.104Z,48.40
2019-02-02T16:12:44.068Z,48.40
2019-02-02T16:15:38.802Z,48.40
2019-02-02T16:18:31.286Z,48.40
2019-02-02T16:21:23.396Z,48.50
2019-02-02T16:24:17.930Z,48.50
2019-02-02T16:27:11.665Z,48.60
2019-02-02T16:30:05.459Z,48.60
2019-02-02T16:33:03.945Z,48.60
2019-02-02T16:35:58.107Z,48.60
2019-02-02T16:38:52.269Z,48.60
2019-02-02T16:41:48.104Z,48.70
2019-02-02T16:44:42.080Z,48.60
2019-02-02T16:47:34.757Z,48.70
2019-02-02T16:50:31.116Z,48.70
2019-02-02T16:53:23.481Z,48.80
2019-02-02T16:56:16.323Z,48.70
2019-02-02T16:59:08.765Z,48.80
2019-02-02T17:02:02.452Z,48.80
2019-02-02T17:04:54.806Z,49.20
2019-02-02T17:07:52.178Z,48.90
2019-02-02T17:10:45.990Z,49.00
2019-02-02T17:13:38.667Z,48.90
2019-02-02T17:16:30.663Z,48.90
2019-02-02T17:19:22.726Z,49.00
2019-02-02T17:22:14.795Z,49.00
2019-02-02T17:25:11.196Z,49.00
2019-02-02T17:28:04.351Z,49.00
2019-02-02T17:30:56.856Z,49.00
2019-02-02T17:33:49.423Z,49.10
2019-02-02T17:36:42.114Z,49.10
2019-02-02T17:39:37.915Z,49.00
2019-02-02T17:42:31.410Z,49.10
2019-02-02T17:48:15.683Z,49.10
2019-02-02T17:51:05.750Z,49.10
2019-02-02T17:53:59.357Z,49.20
2019-02-02T17:56:51.252Z,49.20
2019-02-02T17:59:43.346Z,49.30
2019-02-02T18:02:35.481Z,49.30
2019-02-02T18:05:27.464Z,49.30
2019-02-02T18:08:19.769Z,49.30
2019-02-02T18:11:10.122Z,49.30
2019-02-02T18:14:02.357Z,49.30
2019-02-02T18:16:54.694Z,49.40
2019-02-02T18:19:47.105Z,49.40
2019-02-02T18:22:39.068Z,50.00
2019-02-02T18:25:31.339Z,49.40
2019-02-02T18:28:23.268Z,49.40
2019-02-02T18:31:15.247Z,49.40
2019-02-02T18:34:07.625Z,49.50
2019-02-02T18:36:59.519Z,49.50
2019-02-02T18:39:51.399Z,49.60
2019-02-02T18:42:44.553Z,49.60
2019-02-02T18:45:36.588Z,49.60
2019-02-02T18:48:28.655Z,49.70
2019-02-02T18:51:20.812Z,49.70
2019-02-02T18:54:12.871Z,49.90
2019-02-02T18:57:04.787Z,49.80
2019-02-02T18:59:56.657Z,49.80
2019-02-02T19:02:48.864Z,49.90
2019-02-02T19:05:40.928Z,49.80
2019-02-02T19:08:32.848Z,49.80
2019-02-02T19:11:24.893Z,49.90
2019-02-02T19:14:16.699Z,49.80
2019-02-02T19:17:08.802Z,49.80
2019-02-02T19:20:00.991Z,49.90
2019-02-02T19:22:52.815Z,49.90
2019-02-02T19:25:45.096Z,50.00
2019-02-02T19:28:39.985Z,50.10
2019-02-02T19:31:30.824Z,50.20
2019-02-02T19:34:23.053Z,50.00
2019-02-02T19:37:15.373Z,50.00
2019-02-02T19:40:08.243Z,50.10
2019-02-02T19:43:00.507Z,50.10
2019-02-02T19:45:53.677Z,50.10
2019-02-02T19:48:46.282Z,50.20
2019-02-02T19:51:38.308Z,50.20
2019-02-02T19:54:30.416Z,50.20
2019-02-02T19:57:22.536Z,50.10
2019-02-02T20:00:21.070Z,50.20
2019-02-02T20:03:13.387Z,50.30
2019-02-02T20:06:05.719Z,49.70
2019-02-02T20:08:57.683Z,50.30
2019-02-02T20:11:50.012Z,50.20
2019-02-02T20:14:41.908Z,50.20
2019-02-02T20:17:34.085Z,50.20
2019-02-02T20:20:26.962Z,50.30
2019-02-02T20:23:19.019Z,50.20
2019-02-02T20:26:11.215Z,50.30
2019-02-02T20:29:03.579Z,50.30
2019-02-02T20:31:55.818Z,50.30
2019-02-02T20:34:48.155Z,50.40
2019-02-02T20:37:40.817Z,50.30
2019-02-02T20:40:33.122Z,50.40
2019-02-02T20:43:25.194Z,50.40
2019-02-02T20:46:17.500Z,50.30
2019-02-02T20:49:09.833Z,50.40
2019-02-02T20:52:02.710Z,50.40
2019-02-02T20:54:54.781Z,50.40
2019-02-02T20:57:49.414Z,50.40
2019-02-02T21:00:41.365Z,50.60
2019-02-02T21:03:33.331Z,50.50
2019-02-02T21:06:25.452Z,50.50
2019-02-02T21:09:17.859Z,50.50
2019-02-02T21:12:10.030Z,50.70
2019-02-02T21:15:01.986Z,50.90
2019-02-02T21:17:53.901Z,50.50
2019-02-02T21:20:45.883Z,50.80
2019-02-02T21:23:37.894Z,50.90
2019-02-02T21:26:31.155Z,50.60
2019-02-02T21:29:23.393Z,50.70
2019-02-02T21:32:15.801Z,50.60
2019-02-02T21:35:07.993Z,50.60
2019-02-02T21:38:00.416Z,50.80
2019-02-02T21:40:50.660Z,51.00
2019-02-02T21:43:43.302Z,50.70
2019-02-02T21:46:35.116Z,50.80
2019-02-02T21:49:27.059Z,50.80
2019-02-02T21:52:19.245Z,50.90
2019-02-02T21:55:13.042Z,50.80
2019-02-02T21:58:05.080Z,50.80
2019-02-02T22:00:57.509Z,50.40
2019-02-02T22:03:49.939Z,51.20
2019-02-02T22:06:42.017Z,51.80
2019-02-02T22:09:34.334Z,52.00
2019-02-02T22:12:26.685Z,50.90
2019-02-02T22:15:20.309Z,51.00
2019-02-02T22:18:12.187Z,51.10
2019-02-02T22:21:06.737Z,51.10
2019-02-02T22:23:58.434Z,51.60
2019-02-02T22:26:50.572Z,51.80
2019-02-02T22:29:42.573Z,51.90
2019-02-02T22:32:34.434Z,51.40
2019-02-02T22:35:26.497Z,51.40
2019-02-02T22:38:19.095Z,51.20
2019-02-02T22:41:11.515Z,51.20
2019-02-02T22:44:03.779Z,51.40
2019-02-02T22:46:56.258Z,51.70
2019-02-02T22:49:48.455Z,51.60
2019-02-02T22:52:43.413Z,51.40
2019-02-02T22:55:35.281Z,51.40
2019-02-02T22:58:27.496Z,52.20
2019-02-02T23:01:22.459Z,53.50
2019-02-02T23:04:31.337Z,53.20
2019-02-02T23:07:50.914Z,52.10
2019-02-02T23:10:53.154Z,51.90
2019-02-02T23:14:03.577Z,52.10
2019-02-02T23:16:55.632Z,52.00
2019-02-02T23:19:48.983Z,51.90
2019-02-02T23:22:40.822Z,52.90
2019-02-02T23:25:34.632Z,52.90
2019-02-02T23:28:25.940Z,52.40
2019-02-02T23:31:17.843Z,52.00
2019-02-02T23:34:09.700Z,52.20
2019-02-02T23:37:02.987Z,52.20
2019-02-02T23:39:55.226Z,52.20
2019-02-02T23:42:47.516Z,51.90
2019-02-02T23:45:40.836Z,51.90
2019-02-02T23:48:34.397Z,51.90
2019-02-02T23:51:26.321Z,52.10
2019-02-02T23:54:18.541Z,52.70
2019-02-02T23:57:10.446Z,52.30
